Time;durP1;ratioP1;P1;durP2;ratioP2;P2;SDS_P1;SDS_P2;PMS_P1;PMS_P2;Temp;Humidity;BMP_temperature;BMP_pressure;BME280_temperature;BME280_humidity;BME280_pressure;Samples;Min_cycle;Max_cycle;Signal;HPM_P1;HPM_P2
2022/04/16 00:01:17;;;;;;;;;21.00;17.00;;;;;15.37;59.21;102418.16;4984313;28;47814;-74
2022/04/16 00:03:43;;;;;;;;;15.75;13.50;;;;;15.34;59.38;102420.88;4975011;28;45398;-74
2022/04/16 00:06:09;;;;;;;;;15.25;12.75;;;;;15.32;58.90;102425.38;4971641;28;45350;-74
2022/04/16 00:08:34;;;;;;;;;16.75;16.00;;;;;15.30;59.55;102421.94;4972608;28;46199;-74
2022/04/16 00:11:00;;;;;;;;;18.50;14.25;;;;;15.28;59.60;102422.91;4973254;28;45555;-74
2022/04/16 00:13:26;;;;;;;;;17.50;12.25;;;;;15.24;59.31;102422.13;4973656;28;45653;-74
2022/04/16 00:15:54;;;;;;;;;21.00;16.25;;;;;15.22;59.88;102421.34;4972709;28;45388;-74
2022/04/16 00:18:20;;;;;;;;;21.00;13.00;;;;;15.19;59.13;102417.94;4972198;28;46150;-74
2022/04/16 00:20:49;;;;;;;;;17.75;12.25;;;;;15.17;59.62;102423.28;4980872;28;45781;-74
2022/04/16 00:23:14;;;;;;;;;15.00;14.00;;;;;15.14;59.85;102418.13;4979283;28;45712;-74
2022/04/16 00:25:41;;;;;;;;;13.50;12.00;;;;;15.12;60.01;102417.28;4970383;28;45756;-74
2022/04/16 00:28:08;;;;;;;;;14.50;14.50;;;;;15.08;60.30;102413.00;4970571;28;46014;-74
2022/04/16 00:30:37;;;;;;;;;18.00;15.50;;;;;15.08;60.13;102415.66;4976470;28;45284;-74
2022/04/16 00:33:05;;;;;;;;;18.75;17.00;;;;;15.04;60.43;102409.63;4977309;28;45611;-74
2022/04/16 00:35:30;;;;;;;;;19.00;16.00;;;;;15.02;60.45;102414.09;4977890;28;45508;-74
2022/04/16 00:37:55;;;;;;;;;20.75;17.25;;;;;15.01;60.81;102414.16;4970826;28;46652;-74
2022/04/16 00:40:21;;;;;;;;;20.00;18.00;;;;;14.97;61.06;102410.75;4982095;28;45442;-74
2022/04/16 00:42:47;;;;;;;;;19.75;17.75;;;;;14.94;60.76;102399.41;4970693;28;45423;-74
2022/04/16 00:45:13;;;;;;;;;22.50;20.25;;;;;14.94;61.52;102402.91;4970239;28;45516;-74
2022/04/16 00:47:40;;;;;;;;;24.75;18.75;;;;;14.92;60.53;102406.53;4970394;28;46295;-74
2022/04/16 00:50:10;;;;;;;;;21.25;21.00;;;;;14.89;61.49;102412.81;4977040;28;45858;-74
2022/04/16 00:52:37;;;;;;;;;24.25;19.75;;;;;14.86;61.54;102407.59;4979853;28;45313;-74
2022/04/16 00:55:05;;;;;;;;;20.75;17.25;;;;;14.81;61.31;102401.59;5014200;28;45543;-74
2022/04/16 00:57:31;;;;;;;;;18.25;17.75;;;;;14.80;61.00;102405.16;4975725;27;47139;-74
2022/04/16 00:59:56;;;;;;;;;18.00;17.75;;;;;14.76;61.02;102403.53;4975482;28;45957;-74
2022/04/16 01:02:22;;;;;;;;;20.75;17.75;;;;;14.72;61.87;102399.25;4973482;28;45350;-74
2022/04/16 01:04:48;;;;;;;;;25.50;19.00;;;;;14.68;62.07;102397.66;4982855;28;45521;-74
2022/04/16 01:07:20;;;;;;;;;19.50;18.00;;;;;14.66;61.93;102395.03;4971706;28;46130;-74
2022/04/16 01:09:46;;;;;;;;;18.75;15.75;;;;;14.64;61.81;102399.53;4971207;28;45231;-74
2022/04/16 01:12:11;;;;;;;;;18.00;17.00;;;;;14.61;62.12;102389.03;4989839;28;45645;-74
2022/04/16 01:14:37;;;;;;;;;23.25;18.00;;;;;14.61;62.29;102405.78;4986359;27;45659;-74
2022/04/16 01:17:03;;;;;;;;;19.75;18.00;;;;;14.60;62.40;102389.94;5037477;27;46183;-74
2022/04/16 01:19:28;;;;;;;;;23.25;17.25;;;;;14.61;62.51;102391.69;4969980;28;45493;-74
2022/04/16 01:21:54;;;;;;;;;23.25;17.00;;;;;14.58;62.55;102389.16;4974369;28;45373;-74
2022/04/16 01:24:19;;;;;;;;;18.75;17.75;;;;;14.56;62.48;102390.97;4972993;28;45445;-74
2022/04/16 01:26:44;;;;;;;;;23.00;19.25;;;;;14.54;62.66;102390.16;4972639;28;48513;-74
2022/04/16 01:29:10;;;;;;;;;19.50;17.75;;;;;14.50;62.59;102386.75;4972703;28;45445;-74
2022/04/16 01:31:36;;;;;;;;;18.75;16.75;;;;;14.52;62.56;102395.50;4972876;28;45451;-74
2022/04/16 01:34:03;;;;;;;;;18.25;16.75;;;;;14.51;62.79;102393.78;4970599;28;45493;-74
2022/04/16 01:36:30;;;;;;;;;19.25;15.00;;;;;14.51;62.95;102393.78;4972689;28;46387;-74
2022/04/16 01:38:58;;;;;;;;;22.00;18.00;;;;;14.51;62.92;102387.59;4972605;28;45355;-74
2022/04/16 01:41:29;;;;;;;;;17.00;16.50;;;;;14.48;63.13;102393.00;4973039;28;45745;-74
2022/04/16 01:43:54;;;;;;;;;22.00;19.75;;;;;14.47;63.00;102389.50;4972450;28;45490;-74
2022/04/16 01:46:20;;;;;;;;;20.75;16.25;;;;;14.46;63.38;102397.44;4973396;28;46192;-74
2022/04/16 01:48:46;;;;;;;;;18.00;16.75;;;;;14.44;63.37;102392.22;4973373;28;45406;-74
2022/04/16 01:51:11;;;;;;;;;21.00;18.00;;;;;14.45;63.57;102396.56;4970545;28;47819;-74
2022/04/16 01:53:37;;;;;;;;;18.75;17.00;;;;;14.43;63.39;102395.78;4972389;28;45855;-74
2022/04/16 01:56:02;;;;;;;;;25.00;19.25;;;;;14.43;63.67;102400.19;4972419;28;46116;-74
2022/04/16 01:58:27;;;;;;;;;20.50;17.50;;;;;14.42;63.74;102401.13;4972398;28;45454;-74
2022/04/16 02:00:54;;;;;;;;;17.33;16.00;;;;;14.41;64.05;102404.66;4973739;28;55043;-74
2022/04/16 02:03:21;;;;;;;;;20.00;19.25;;;;;14.40;63.62;102405.56;4972612;28;45436;-74
2022/04/16 02:05:47;;;;;;;;;20.25;16.75;;;;;14.36;64.07;102405.69;4972075;28;45311;-74
2022/04/16 02:08:12;;;;;;;;;16.75;14.50;;;;;14.35;63.92;102408.38;4972199;28;45774;-74
2022/04/16 02:10:37;;;;;;;;;19.00;16.00;;;;;14.31;63.72;102404.97;4968295;28;45287;-74
2022/04/16 02:13:03;;;;;;;;;17.25;16.50;;;;;14.32;63.89;102408.47;4973465;28;45372;-74
2022/04/16 02:15:29;;;;;;;;;21.25;17.00;;;;;14.29;64.10;102409.44;4972329;28;45477;-74
2022/04/16 02:17:56;;;;;;;;;22.75;17.25;;;;;14.25;64.40;102399.88;4972135;28;45350;-74
2022/04/16 02:20:23;;;;;;;;;20.50;17.00;;;;;14.22;64.74;102397.31;4972206;28;45359;-74
2022/04/16 02:22:51;;;;;;;;;22.75;19.75;;;;;14.20;64.61;102403.56;4972332;28;45449;-74
2022/04/16 02:25:20;;;;;;;;;23.50;21.25;;;;;14.16;65.08;102408.09;4973624;28;46359;-74
2022/04/16 02:27:46;;;;;;;;;21.75;18.25;;;;;14.13;64.94;102402.91;4961805;28;45817;-74
2022/04/16 02:30:13;;;;;;;;;24.75;20.75;;;;;14.11;65.29;102399.44;4967239;28;45516;-74
2022/04/16 02:32:45;;;;;;;;;23.50;20.00;;;;;14.07;65.60;102405.75;4971100;28;45445;-74
2022/04/16 02:35:13;;;;;;;;;29.25;20.75;;;;;14.04;64.98;102405.81;4971747;28;45461;-74
2022/04/16 02:37:38;;;;;;;;;27.00;23.00;;;;;14.00;65.43;102414.78;4972041;28;45958;-74
2022/04/16 02:40:04;;;;;;;;;21.00;19.00;;;;;13.96;65.78;102410.50;4974066;28;45379;-74
2022/04/16 02:42:34;;;;;;;;;26.25;21.00;;;;;13.92;65.52;102414.13;4971630;28;45417;-74
2022/04/16 02:47:43;;;;;;;;;28.00;24.50;;;;;13.82;66.07;102410.91;4971591;28;45464;-74
2022/04/16 02:50:08;;;;;;;;;25.00;22.00;;;;;13.78;66.29;102412.78;4971085;28;45391;-74
2022/04/16 02:52:34;;;;;;;;;32.00;24.00;;;;;13.75;66.31;102412.00;4971882;28;48729;-74
2022/04/16 02:55:00;;;;;;;;;26.25;21.50;;;;;13.72;66.38;102415.59;4973474;28;47072;-73
2022/04/16 02:57:25;;;;;;;;;21.25;21.25;;;;;13.70;66.54;102413.91;4971930;28;45603;-74
2022/04/16 02:59:52;;;;;;;;;27.50;23.25;;;;;13.70;66.00;102409.50;4970891;28;45348;-74
2022/04/16 03:02:18;;;;;;;;;28.00;22.50;;;;;13.65;66.55;102403.47;4971613;28;45517;-74
2022/04/16 03:04:43;;;;;;;;;25.00;24.25;;;;;13.63;66.85;102407.09;4972023;28;47086;-75
2022/04/16 03:07:09;;;;;;;;;21.25;18.25;;;;;13.61;66.44;102411.53;4973497;28;45361;-73
2022/04/16 03:09:35;;;;;;;;;27.75;20.50;;;;;13.56;66.42;102406.38;4971526;28;45437;-74
2022/04/16 03:12:01;;;;;;;;;27.00;21.00;;;;;13.49;66.62;102399.53;4971379;28;45403;-74
2022/04/16 03:19:55;;;;;;;;;28.00;20.00;;;;;13.35;67.18;102404.34;4957633;28;45374;-74
2022/04/16 03:22:21;;;;;;;;;25.00;22.00;;;;;13.31;67.18;102409.72;4972663;28;45508;-73
2022/04/16 03:24:46;;;;;;;;;30.25;25.00;;;;;13.29;67.14;102411.53;4971745;28;45376;-73
2022/04/16 03:27:11;;;;;;;;;30.50;25.00;;;;;13.25;67.13;102401.94;4970880;28;48314;-73
2022/04/16 03:29:37;;;;;;;;;28.25;23.50;;;;;13.22;67.29;102409.97;4971611;28;45423;-73
2022/04/16 03:32:03;;;;;;;;;29.25;23.00;;;;;13.17;67.51;102403.91;4971942;28;45451;-74
2022/04/16 03:34:28;;;;;;;;;34.50;24.00;;;;;13.13;67.56;102396.97;4971387;28;46179;-74
2022/04/16 03:36:54;;;;;;;;;29.00;23.50;;;;;13.14;67.52;102408.41;4970699;28;54369;-74
2022/04/16 03:39:20;;;;;;;;;29.00;25.25;;;;;13.11;67.31;102403.22;4969453;28;46558;-73
2022/04/16 03:41:47;;;;;;;;;27.75;24.50;;;;;13.07;67.97;102399.78;4971681;28;45420;-74
2022/04/16 03:44:12;;;;;;;;;29.75;23.75;;;;;13.04;67.71;102402.50;4970880;28;45987;-73
2022/04/16 03:46:38;;;;;;;;;30.00;22.75;;;;;12.98;68.12;102402.66;4971011;28;45817;-73
2022/04/16 03:49:03;;;;;;;;;31.00;27.25;;;;;12.99;67.35;102407.03;4973182;28;45747;-73
2022/04/16 03:51:28;;;;;;;;;35.25;25.00;;;;;12.96;68.21;102407.13;4970557;28;45448;-74
2022/04/16 03:53:54;;;;;;;;;33.75;23.75;;;;;12.95;67.56;102408.91;4970715;28;46033;-74
2022/04/16 04:01:48;;;;;;;;;31.75;26.50;;;;;12.85;67.79;102402.13;4971114;28;45363;-74
2022/04/16 04:04:13;;;;;;;;;27.75;25.50;;;;;12.83;68.51;102401.28;4972748;28;46043;-73
2022/04/16 04:06:39;;;;;;;;;29.25;25.00;;;;;12.82;68.31;102401.34;4970784;28;45527;-73
2022/04/16 04:09:04;;;;;;;;;35.25;28.75;;;;;12.80;68.34;102398.75;4969848;28;45532;-74
2022/04/16 04:11:29;;;;;;;;;26.25;21.25;;;;;12.80;67.96;102398.75;4968793;28;45395;-74
2022/04/16 04:13:55;;;;;;;;;25.25;24.25;;;;;12.79;68.65;102397.88;4956925;28;45367;-74
2022/04/16 04:16:22;;;;;;;;;32.25;26.25;;;;;12.78;68.42;102401.41;4971856;28;45406;-74
2022/04/16 04:18:47;;;;;;;;;30.75;25.50;;;;;12.78;68.14;102416.38;4971787;28;45374;-74
2022/04/16 04:21:12;;;;;;;;;30.25;21.25;;;;;12.77;68.18;102409.38;4970450;28;45458;-73
2022/04/16 04:23:37;;;;;;;;;30.00;27.00;;;;;12.76;68.47;102416.41;4969769;28;45445;-73
2022/04/16 04:26:03;;;;;;;;;36.25;28.50;;;;;12.77;68.28;102417.28;4970659;28;49470;-74
2022/04/16 04:28:28;;;;;;;;;27.75;25.25;;;;;12.75;68.20;102417.31;4970825;28;45489;-74
2022/04/16 04:30:54;;;;;;;;;27.75;22.25;;;;;12.74;68.19;102414.75;4971979;28;45486;-73
2022/04/16 04:33:20;;;;;;;;;33.50;26.00;;;;;12.73;68.40;102428.81;4970482;28;45666;-74
2022/04/16 04:35:45;;;;;;;;;28.50;24.75;;;;;12.72;68.06;102420.03;4970579;28;45374;-73
2022/04/16 04:38:10;;;;;;;;;34.25;25.00;;;;;12.70;67.96;102426.25;4970444;28;45735;-73
2022/04/16 04:40:36;;;;;;;;;32.75;27.50;;;;;12.67;68.17;102421.91;4970628;28;45325;-73
2022/04/16 04:43:01;;;;;;;;;39.00;29.00;;;;;12.67;67.84;102416.63;4972339;28;46238;-73
2022/04/16 04:45:26;;;;;;;;;29.75;22.75;;;;;12.66;68.50;102417.56;4962149;28;45572;-73
2022/04/16 04:47:52;;;;;;;;;29.00;23.25;;;;;12.65;68.50;102428.16;4964337;28;47752;-73
2022/04/16 04:50:17;;;;;;;;;34.50;27.00;;;;;12.64;68.11;102424.66;4970268;28;45327;-73
2022/04/16 04:52:42;;;;;;;;;36.50;26.25;;;;;12.65;67.96;102420.22;4969287;28;50628;-73
2022/04/16 04:55:10;;;;;;;;;37.50;28.00;;;;;12.62;67.79;102421.16;4972415;28;45411;-74
2022/04/16 04:57:36;;;;;;;;;34.50;27.75;;;;;12.61;67.78;102426.47;4973101;28;45537;-73
2022/04/16 05:00:03;;;;;;;;;33.00;27.50;;;;;12.58;68.00;102423.91;4973654;28;45402;-74
2022/04/16 05:02:38;;;;;;;;;35.25;29.50;;;;;12.52;68.39;102425.78;4970970;28;47222;-73
2022/04/16 05:05:03;;;;;;;;;25.75;23.25;;;;;12.55;68.13;102432.78;4972846;28;45472;-73
2022/04/16 05:07:29;;;;;;;;;40.75;31.50;;;;;12.54;67.63;102428.41;4973009;28;45362;-73
2022/04/16 05:09:54;;;;;;;;;37.00;28.67;;;;;12.51;67.85;102426.69;4974866;28;51868;-73
2022/04/16 05:12:19;;;;;;;;;29.00;25.50;;;;;12.50;67.60;102429.38;4972912;28;51075;-73
2022/04/16 05:14:45;;;;;;;;;33.33;27.33;;;;;12.47;68.05;102432.06;4972677;28;51932;-73
2022/04/16 05:17:10;;;;;;;;;41.75;31.25;;;;;12.47;68.06;102434.72;4972711;28;45339;-73
2022/04/16 05:19:35;;;;;;;;;34.00;23.25;;;;;12.47;68.36;102432.06;4972666;28;45321;-73
2022/04/16 05:22:01;;;;;;;;;32.25;29.75;;;;;12.46;67.73;102439.13;4974862;28;47062;-73
2022/04/16 05:24:26;;;;;;;;;34.00;30.00;;;;;12.44;68.55;102443.59;4972054;28;46041;-73
2022/04/16 05:26:51;;;;;;;;;30.25;30.00;;;;;12.42;67.66;102455.06;4971180;28;47793;-73
2022/04/16 05:29:17;;;;;;;;;33.75;27.75;;;;;12.38;68.71;102454.28;4973087;28;45934;-73
2022/04/16 05:31:43;;;;;;;;;32.00;28.25;;;;;12.34;68.35;102457.00;4972734;28;46954;-73
2022/04/16 05:34:21;;;;;;;;;42.00;32.50;;;;;12.30;67.96;102450.06;4974055;28;45872;-74
2022/04/16 05:36:49;;;;;;;;;41.75;34.00;;;;;12.30;68.08;102456.19;4973854;28;45417;-73
2022/04/16 05:39:18;;;;;;;;;41.00;33.00;;;;;12.29;68.71;102454.47;4972848;28;45506;-73
2022/04/16 05:41:43;;;;;;;;;37.00;30.50;;;;;12.27;68.77;102457.16;4972472;28;46250;-73
2022/04/16 05:44:09;;;;;;;;;38.25;29.25;;;;;12.26;68.24;102454.53;4972575;28;45441;-73
2022/04/16 05:46:34;;;;;;;;;41.50;30.75;;;;;12.26;68.06;102465.06;4972689;28;45431;-72
2022/04/16 05:48:59;;;;;;;;;29.00;27.00;;;;;12.26;68.58;102463.31;4974475;28;45456;-73
2022/04/16 05:51:26;;;;;;;;;34.75;30.00;;;;;12.25;68.83;102469.47;4970939;28;47370;-73
2022/04/16 05:53:52;;;;;;;;;32.50;31.50;;;;;12.26;68.51;102465.94;4967169;28;45812;-73
2022/04/16 05:56:18;;;;;;;;;40.25;33.25;;;;;12.28;68.20;102471.19;4972229;28;45279;-73
2022/04/16 05:58:44;;;;;;;;;34.50;28.25;;;;;12.27;68.63;102467.69;4972383;28;45297;-73
2022/04/16 06:01:10;;;;;;;;;38.75;33.75;;;;;12.28;69.04;102474.69;4974526;28;45229;-73
2022/04/16 06:03:36;;;;;;;;;38.00;33.75;;;;;12.30;68.83;102485.19;4976830;28;45495;-73
2022/04/16 06:06:03;;;;;;;;;41.75;34.00;;;;;12.33;68.39;102486.91;4987444;28;45682;-73
2022/04/16 06:08:28;;;;;;;;;36.50;29.25;;;;;12.34;68.86;102473.69;4969410;28;45557;-73
2022/04/16 06:10:53;;;;;;;;;35.00;24.75;;;;;12.39;68.49;102471.81;4971782;28;58667;-73
2022/04/16 06:13:19;;;;;;;;;44.00;32.00;;;;;12.42;68.40;102487.56;4973046;28;53672;-73
2022/04/16 06:15:44;;;;;;;;;41.50;35.25;;;;;12.46;68.50;102493.63;4972767;28;53590;-73
2022/04/16 06:18:10;;;;;;;;;36.75;32.25;;;;;12.51;68.42;102489.13;4972045;28;45441;-72
2022/04/16 06:20:36;;;;;;;;;41.50;33.75;;;;;12.58;68.85;102496.00;4971844;28;46885;-73
2022/04/16 06:23:03;;;;;;;;;44.25;34.75;;;;;12.65;68.81;102492.31;4972403;28;45850;-73
2022/04/16 06:25:29;;;;;;;;;39.50;34.25;;;;;12.72;68.04;102507.09;4972202;28;45573;-73
2022/04/16 06:27:55;;;;;;;;;37.25;27.00;;;;;12.80;68.07;102496.38;4973736;28;45315;-73
2022/04/16 06:30:20;;;;;;;;;39.75;32.75;;;;;12.89;68.25;102501.41;4969209;28;47383;-73
2022/04/16 06:32:45;;;;;;;;;40.75;33.50;;;;;12.97;67.80;102504.72;4970915;28;45276;-73
2022/04/16 06:35:12;;;;;;;;;39.50;33.25;;;;;13.05;67.65;102507.19;4972462;28;45614;-74
2022/04/16 06:37:38;;;;;;;;;36.50;28.75;;;;;13.14;67.61;102498.16;4972619;28;45589;-74
2022/04/16 06:40:06;;;;;;;;;44.50;32.50;;;;;13.23;67.22;102497.97;5038344;28;45356;-74
2022/04/16 06:42:31;;;;;;;;;32.75;26.25;;;;;13.26;66.74;102500.53;4971664;28;45816;-75
2022/04/16 06:44:57;;;;;;;;;36.50;31.00;;;;;13.39;67.36;102496.66;4967155;28;45460;-75
2022/04/16 06:47:23;;;;;;;;;32.75;26.00;;;;;13.50;66.33;102493.72;4972206;28;45453;-76
2022/04/16 06:49:49;;;;;;;;;36.50;22.00;;;;;13.75;66.82;102496.56;4982329;28;47091;-74
2022/04/16 06:52:19;;;;;;;;;43.00;32.00;;;;;14.25;67.11;102492.44;5008201;28;45652;-73
2022/04/16 06:54:45;;;;;;;;;42.50;32.25;;;;;15.29;65.45;102494.34;4973446;28;45440;-73
2022/04/16 06:57:10;;;;;;;;;38.50;32.75;;;;;15.35;63.61;102486.22;4971689;28;45904;-73
2022/04/16 06:59:37;;;;;;;;;38.75;33.25;;;;;15.44;63.38;102487.66;4979219;28;45981;-73
2022/04/16 07:02:04;;;;;;;;;44.50;32.00;;;;;15.74;63.32;102485.72;4978200;27;45905;-73
2022/04/16 07:04:29;;;;;;;;;39.50;32.00;;;;;15.94;62.16;102490.31;4983783;28;46301;-76
2022/04/16 07:06:55;;;;;;;;;39.67;33.00;;;;;15.89;61.33;102493.13;4974489;28;55588;-72
2022/04/16 07:09:20;;;;;;;;;41.00;35.00;;;;;15.71;61.12;102491.13;4980587;28;56259;-74
2022/04/16 07:11:45;;;;;;;;;42.33;33.00;;;;;15.93;61.85;102477.97;4980589;28;55022;-74
2022/04/16 07:14:10;;;;;;;;;44.33;34.33;;;;;16.67;61.34;102489.22;4973220;28;49369;-74
2022/04/16 07:16:37;;;;;;;;;38.00;32.33;;;;;16.78;59.92;102476.41;4970540;28;59790;-74
2022/04/16 07:19:02;;;;;;;;;40.25;33.00;;;;;16.53;59.07;102487.13;4977195;28;46198;-74
2022/04/16 07:21:28;;;;;;;;;38.25;31.25;;;;;16.35;59.90;102487.84;4970643;28;49260;-74
2022/04/16 07:23:53;;;;;;;;;46.25;33.75;;;;;16.54;59.61;102488.84;4976694;28;45390;-74
2022/04/16 07:26:18;;;;;;;;;39.75;32.25;;;;;16.60;59.56;102490.38;4979374;28;47334;-74
2022/04/16 07:28:43;;;;;;;;;30.00;27.33;;;;;16.69;58.93;102490.00;4979661;28;59435;-73
2022/04/16 07:31:09;;;;;;;;;36.50;28.50;;;;;16.72;58.94;102486.41;4968641;28;52739;-73
2022/04/16 07:33:34;;;;;;;;;39.25;29.50;;;;;16.60;58.67;102477.09;4970969;28;49138;-74
2022/04/16 07:35:59;;;;;;;;;33.67;28.33;;;;;16.43;59.03;102477.78;4963497;28;58747;-74
2022/04/16 07:38:24;;;;;;;;;32.25;25.50;;;;;16.29;58.43;102485.44;4975190;28;45264;-73
2022/04/16 07:40:50;;;;;;;;;37.50;30.25;;;;;16.20;58.95;102491.09;4969348;28;45357;-74
2022/04/16 07:43:15;;;;;;;;;36.75;29.00;;;;;16.13;58.83;102487.78;4957863;28;45342;-74
2022/04/16 07:45:41;;;;;;;;;36.75;32.00;;;;;16.16;59.22;102496.50;4973581;28;45404;-74
2022/04/16 07:48:07;;;;;;;;;37.00;28.25;;;;;16.23;59.17;102497.13;4962128;28;46299;-73
2022/04/16 07:50:32;;;;;;;;;37.50;29.25;;;;;16.27;58.94;102505.84;4967132;28;45283;-74
2022/04/16 07:52:57;;;;;;;;;31.25;28.00;;;;;16.26;58.97;102496.16;4964900;28;45438;-73
2022/04/16 07:55:22;;;;;;;;;34.75;30.25;;;;;16.39;58.99;102505.38;4960705;28;51742;-73
2022/04/16 07:57:48;;;;;;;;;27.00;24.25;;;;;16.47;58.94;102503.28;4955414;28;46092;-73
2022/04/16 08:00:15;;;;;;;;;37.50;28.00;;;;;16.62;58.34;102507.13;4964935;28;45457;-73
2022/04/16 08:02:40;;;;;;;;;30.50;27.00;;;;;16.77;58.05;102511.00;4966494;28;45442;-74
2022/04/16 08:05:07;;;;;;;;;32.25;27.00;;;;;16.97;58.42;102510.19;4966778;28;45439;-74
2022/04/16 08:07:32;;;;;;;;;28.25;24.75;;;;;17.12;58.22;102506.84;4963932;28;46429;-73
2022/04/16 08:09:58;;;;;;;;;32.75;29.75;;;;;17.22;57.65;102511.72;4967322;28;45361;-73
2022/04/16 08:12:25;;;;;;;;;42.25;34.00;;;;;17.38;57.58;102521.69;4965576;28;45408;-74
2022/04/16 08:14:51;;;;;;;;;28.00;27.00;;;;;17.52;56.95;102513.13;4973506;28;45779;-73
2022/04/16 08:17:16;;;;;;;;;35.00;26.00;;;;;17.65;56.84;102509.88;4964176;28;46035;-75
2022/04/16 08:19:42;;;;;;;;;36.50;26.50;;;;;17.79;57.16;102513.72;4972634;28;45538;-74
2022/04/16 08:22:10;;;;;;;;;30.50;26.50;;;;;17.91;56.53;102510.53;4971161;28;45604;-73
2022/04/16 08:27:02;;;;;;;;;27.25;25.00;;;;;18.23;55.95;102525.00;4984448;28;45433;-74
2022/04/16 08:29:27;;;;;;;;;29.00;23.75;;;;;18.43;56.15;102524.06;4964238;28;45537;-73
2022/04/16 08:31:53;;;;;;;;;33.00;26.00;;;;;18.89;55.66;102528.03;4956269;28;45575;-73
2022/04/16 08:34:18;;;;;;;;;35.50;27.00;;;;;19.77;54.63;102517.31;4966325;28;45466;-73
2022/04/16 08:36:43;;;;;;;;;32.50;28.00;;;;;20.34;53.41;102524.88;4964710;28;45549;-74
2022/04/16 08:39:08;;;;;;;;;34.25;27.75;;;;;20.71;53.23;102517.50;4962050;28;45439;-74
2022/04/16 08:41:34;;;;;;;;;40.33;35.00;;;;;21.42;51.93;102519.59;4961663;28;57350;-74
2022/04/16 08:43:59;;;;;;;;;25.75;22.75;;;;;23.07;51.53;102517.94;4962827;28;45482;-73
2022/04/16 08:46:32;;;;;;;;;31.75;28.25;;;;;23.95;48.64;102515.44;4968331;28;47119;-72
2022/04/16 08:48:58;;;;;;;;;28.75;24.50;;;;;25.45;49.17;102520.44;4964144;28;45704;-73
2022/04/16 08:51:27;;;;;;;;;28.25;25.75;;;;;27.66;47.14;102517.44;4963625;28;45780;-73
2022/04/16 08:53:53;;;;;;;;;28.75;23.25;;;;;29.96;43.49;102521.47;4979852;28;45565;-72
2022/04/16 08:56:19;;;;;;;;;30.50;25.75;;;;;32.03;39.68;102516.72;4963848;28;46383;-72
2022/04/16 08:58:44;;;;;;;;;24.00;21.75;;;;;34.20;38.45;102526.06;4954319;28;45448;-73
2022/04/16 09:01:11;;;;;;;;;26.25;24.50;;;;;36.39;36.36;102526.88;4984246;28;45417;-73
2022/04/16 09:03:38;;;;;;;;;30.00;25.50;;;;;37.91;33.49;102527.34;4953917;28;45700;-73
2022/04/16 09:06:05;;;;;;;;;27.00;23.25;;;;;38.91;30.55;102530.38;4957665;28;46315;-71
2022/04/16 09:08:32;;;;;;;;;27.00;23.50;;;;;40.01;29.79;102534.22;4955173;28;45812;-73
2022/04/16 09:11:05;;;;;;;;;26.50;21.75;;;;;41.33;28.57;102516.75;4956079;28;45446;-72
2022/04/16 09:13:30;;;;;;;;;21.50;18.50;;;;;42.07;26.28;102534.19;4959269;28;45530;-72
2022/04/16 09:16:06;;;;;;;;;25.25;23.50;;;;;42.95;25.30;102527.97;4959256;28;46127;-71
2022/04/16 09:18:43;;;;;;;;;23.25;18.25;;;;;43.89;24.32;102527.09;4976714;28;45548;-71
2022/04/16 09:21:13;;;;;;;;;24.00;20.50;;;;;44.88;22.62;102519.22;4984729;28;45569;-71
2022/04/16 09:23:48;;;;;;;;;24.50;19.75;;;;;45.06;21.83;102531.19;4968579;28;45772;-72
2022/04/16 09:26:26;;;;;;;;;36.00;30.25;;;;;44.91;21.13;102529.84;4967321;28;45470;-73
2022/04/16 09:28:52;;;;;;;;;23.00;21.25;;;;;44.42;21.08;102531.47;4975330;28;45414;-70
2022/04/16 09:31:17;;;;;;;;;21.50;19.50;;;;;43.24;21.66;102525.38;4968989;28;45399;-70
2022/04/16 09:33:44;;;;;;;;;23.25;22.25;;;;;41.97;21.64;102523.72;4968170;28;47405;-70
2022/04/16 09:36:10;;;;;;;;;21.50;20.00;;;;;40.97;22.37;102520.28;4961201;28;54632;-70
2022/04/16 09:38:36;;;;;;;;;16.50;14.50;;;;;39.93;22.88;102516.03;4959458;28;45528;-69
2022/04/16 09:41:06;;;;;;;;;17.50;17.00;;;;;38.73;23.42;102522.72;4974295;28;45291;-70
2022/04/16 09:43:37;;;;;;;;;28.25;20.50;;;;;37.71;23.73;102516.22;4968620;28;45451;-70
2022/04/16 09:46:11;;;;;;;;;22.50;22.00;;;;;37.28;24.45;102521.00;4961636;28;45437;-70
2022/04/16 09:48:37;;;;;;;;;22.75;20.75;;;;;37.00;24.68;102508.13;4969880;28;45646;-70
2022/04/16 09:51:04;;;;;;;;;16.75;15.25;;;;;36.61;25.30;102505.88;4973756;28;45595;-70
2022/04/16 09:53:31;;;;;;;;;18.50;17.25;;;;;36.05;24.80;102497.41;4975469;28;45618;-71
2022/04/16 09:56:00;;;;;;;;;21.50;17.75;;;;;35.80;25.67;102499.59;4960962;28;46947;-70
2022/04/16 09:58:37;;;;;;;;;17.00;16.75;;;;;35.51;25.42;102498.59;4976039;28;45822;-70
2022/04/16 10:01:03;;;;;;;;;24.00;20.50;;;;;35.22;25.92;102498.53;4965147;28;46643;-71
2022/04/16 10:03:29;;;;;;;;;18.75;17.00;;;;;35.09;26.37;102503.78;4963451;28;45508;-71
2022/04/16 10:05:59;;;;;;;;;18.75;16.25;;;;;34.89;25.93;102503.44;4975890;28;46445;-70
2022/04/16 10:08:28;;;;;;;;;23.75;19.50;;;;;34.88;26.36;102501.72;4963939;28;45800;-70
2022/04/16 10:10:55;;;;;;;;;20.25;19.50;;;;;35.02;25.61;102504.50;4965831;28;46264;-70
2022/04/16 10:13:22;;;;;;;;;19.50;18.50;;;;;34.86;26.22;102510.09;4965919;28;45571;-71
2022/04/16 10:15:53;;;;;;;;;18.00;14.75;;;;;34.13;26.04;102516.88;4957270;28;45438;-70
2022/04/16 10:18:18;;;;;;;;;23.50;19.00;;;;;32.92;26.33;102513.38;4966377;28;45597;-70
2022/04/16 10:20:54;;;;;;;;;19.75;19.00;;;;;31.40;27.52;102509.72;4971510;28;45879;-70
2022/04/16 10:23:27;;;;;;;;;20.75;20.50;;;;;30.40;28.35;102503.56;4972906;28;45298;-70
2022/04/16 10:26:12;;;;;;;;;18.25;15.00;;;;;29.99;29.16;102521.19;4967876;28;45442;-70
2022/04/16 10:28:42;;;;;;;;;20.75;16.75;;;;;29.67;29.96;102518.03;4964256;28;45400;-70
2022/04/16 10:31:28;;;;;;;;;18.50;15.75;;;;;29.32;29.96;102517.66;4981733;28;45379;-70
2022/04/16 10:33:58;;;;;;;;;16.50;14.50;;;;;29.01;29.44;102516.13;4959032;28;45428;-70
2022/04/16 10:36:29;;;;;;;;;20.50;17.50;;;;;28.83;30.11;102507.84;4959774;28;45728;-69
2022/04/16 10:38:54;;;;;;;;;18.00;15.75;;;;;28.73;30.53;102502.44;4960377;28;45515;-69
2022/04/16 10:41:21;;;;;;;;;15.75;14.25;;;;;28.65;30.62;102504.13;4967636;28;45817;-70
2022/04/16 10:43:59;;;;;;;;;16.50;16.00;;;;;28.59;30.39;102495.59;4970755;28;45452;-71
2022/04/16 10:46:38;;;;;;;;;20.00;17.50;;;;;28.53;30.48;102506.13;4969181;28;46588;-70
2022/04/16 10:49:07;;;;;;;;;16.00;16.00;;;;;28.52;30.95;102504.41;4958736;28;45409;-69
2022/04/16 10:51:35;;;;;;;;;16.50;15.25;;;;;28.53;30.90;102504.28;4965041;28;45460;-69
2022/04/16 10:54:11;;;;;;;;;21.00;18.25;;;;;28.59;30.74;102497.44;4964851;28;45493;-69
2022/04/16 10:56:39;;;;;;;;;18.50;15.75;;;;;28.51;31.35;102498.16;4961904;28;46212;-69
2022/04/16 10:59:06;;;;;;;;;22.50;20.50;;;;;28.41;31.47;102489.19;4970181;28;45622;-69
2022/04/16 11:01:31;;;;;;;;;20.25;16.50;;;;;28.35;31.70;102489.75;4957287;28;45279;-70
2022/04/16 11:03:57;;;;;;;;;21.50;16.50;;;;;28.23;31.68;102483.53;4958470;28;59578;-69
2022/04/16 11:06:34;;;;;;;;;18.00;15.75;;;;;28.01;32.05;102484.63;4959358;28;45568;-69
2022/04/16 11:08:59;;;;;;;;;21.75;16.75;;;;;27.35;31.91;102486.84;4961626;28;45874;-70
2022/04/16 11:11:25;;;;;;;;;23.50;17.00;;;;;26.61;32.57;102480.59;4959774;28;45533;-70
2022/04/16 11:13:51;;;;;;;;;16.50;15.25;;;;;25.91;33.39;102481.81;4961785;28;45510;-70
2022/04/16 11:16:22;;;;;;;;;19.25;16.50;;;;;25.35;33.89;102490.69;4977078;28;45559;-70
2022/04/16 11:18:48;;;;;;;;;19.00;16.50;;;;;24.85;34.68;102489.16;4961140;28;45739;-70
2022/04/16 11:21:25;;;;;;;;;18.00;14.75;;;;;24.45;35.20;102490.31;4962532;28;45308;-70
2022/04/16 11:23:53;;;;;;;;;18.25;17.00;;;;;24.23;36.04;102489.31;4959276;28;45571;-70